createdAt,value
2023-04-18T00:06:57.614Z,3.28
2023-04-18T00:16:59.326Z,3.63
2023-04-18T00:27:01.960Z,3.83
2023-04-18T00:37:04.675Z,3.20
2023-04-18T00:47:06.757Z,3.47
2023-04-18T00:57:10.910Z,3.50
2023-04-18T01:07:12.639Z,3.58
2023-04-18T01:17:14.352Z,3.30
2023-04-18T01:27:17.150Z,3.55
2023-04-18T01:37:19.144Z,3.90
2023-04-18T01:47:20.916Z,3.63
2023-04-18T01:57:23.501Z,4.43
2023-04-18T02:07:25.906Z,3.80
2023-04-18T02:17:28.869Z,3.53
2023-04-18T02:27:31.610Z,3.85
2023-04-18T02:37:33.419Z,4.20
2023-04-18T02:47:51.161Z,4.32
2023-04-18T02:57:56.060Z,4.32
2023-04-18T03:07:57.846Z,4.10
2023-04-18T03:17:59.654Z,4.68
2023-04-18T03:28:04.670Z,5.65
2023-04-18T03:38:09.119Z,5.60
2023-04-18T03:48:10.814Z,5.60
2023-04-18T03:58:13.399Z,5.90
2023-04-18T04:08:16.922Z,5.67
2023-04-18T04:18:18.712Z,6.57
2023-04-18T04:28:28.975Z,5.82
2023-04-18T04:38:33.290Z,7.03
2023-04-18T04:48:36.010Z,7.80
2023-04-18T04:58:37.934Z,8.30
2023-04-18T05:08:40.196Z,7.50
2023-04-18T05:18:42.973Z,7.83
2023-04-18T05:28:45.169Z,7.20
2023-04-18T05:38:46.989Z,8.33
2023-04-18T05:48:48.738Z,8.20
2023-04-18T05:58:51.716Z,7.13
2023-04-18T06:08:54.663Z,6.53
2023-04-18T06:39:01.705Z,5.88
2023-04-18T06:49:03.964Z,5.43
2023-04-18T06:59:07.877Z,4.57
2023-04-18T07:09:09.685Z,3.60
2023-04-18T07:19:13.670Z,4.53
2023-04-18T07:29:16.576Z,4.22
2023-04-18T07:39:19.540Z,2.33
2023-04-18T07:49:27.354Z,2.30
2023-04-18T07:59:30.627Z,1.92
2023-04-18T08:09:32.220Z,1.95
2023-04-18T08:19:35.172Z,1.98
2023-04-18T08:29:36.832Z,2.20
2023-04-18T08:49:40.431Z,1.33
2023-04-18T08:59:46.710Z,1.20
2023-04-18T09:09:54.763Z,1.20
2023-04-18T09:19:59.275Z,1.48
2023-04-18T09:30:03.326Z,1.20
2023-04-18T09:40:19.098Z,1.42
2023-04-18T09:50:38.197Z,2.35
2023-04-18T10:00:42.757Z,1.50
2023-04-18T10:10:46.731Z,1.83
2023-04-18T10:20:48.488Z,1.25
2023-04-18T10:31:03.119Z,1.73
2023-04-18T10:41:28.069Z,1.73
2023-04-18T10:51:31.019Z,1.60
2023-04-18T11:11:41.659Z,1.90
2023-04-18T11:21:44.748Z,1.58
2023-04-18T11:31:55.999Z,1.42
2023-04-18T11:42:06.361Z,1.60
2023-04-18T11:52:14.427Z,1.30
2023-04-18T12:02:17.575Z,1.15
2023-04-18T12:12:51.627Z,1.50
2023-04-18T12:22:55.110Z,1.50
2023-04-18T12:33:02.579Z,1.52
2023-04-18T12:43:04.214Z,1.27
2023-04-18T12:53:06.298Z,1.30
2023-04-18T13:03:37.291Z,1.92
2023-04-18T13:13:39.130Z,1.55
2023-04-18T13:23:41.390Z,1.25
2023-04-18T13:33:43.207Z,1.50
2023-04-18T13:43:47.532Z,1.30
2023-04-18T13:53:49.929Z,1.20
2023-04-18T14:03:52.315Z,1.13
2023-04-18T14:13:55.628Z,1.63
2023-04-18T14:24:01.633Z,1.40
2023-04-18T14:34:03.376Z,2.33
2023-04-18T14:44:05.111Z,1.65
2023-04-18T14:54:08.267Z,1.67
2023-04-18T15:04:10.111Z,1.55
2023-04-18T15:14:12.112Z,1.65
2023-04-18T15:24:16.360Z,2.15
2023-04-18T15:34:24.423Z,2.30
2023-04-18T15:44:26.701Z,1.70
2023-04-18T15:54:28.410Z,1.67
2023-04-18T16:04:32.832Z,1.70
2023-04-18T16:14:35.485Z,1.73
2023-04-18T16:24:37.848Z,2.03
2023-04-18T16:34:42.274Z,1.90
2023-04-18T16:44:45.324Z,2.00
2023-04-18T16:54:47.221Z,2.00
2023-04-18T17:04:49.829Z,1.85
2023-04-18T17:14:51.725Z,2.20
2023-04-18T17:24:57.961Z,2.55
2023-04-18T17:35:04.793Z,2.58
2023-04-18T17:45:08.751Z,2.65
2023-04-18T17:55:10.690Z,1.92
2023-04-18T18:05:16.885Z,2.57
2023-04-18T18:15:20.910Z,3.20
2023-04-18T18:25:24.728Z,3.28
2023-04-18T18:35:32.251Z,3.75
2023-04-18T18:45:49.267Z,4.95
2023-04-18T18:56:03.548Z,3.97
2023-04-18T19:06:09.141Z,4.97
2023-04-18T19:16:13.505Z,4.32
2023-04-18T19:26:17.088Z,4.07
2023-04-18T19:36:20.725Z,3.83
2023-04-18T19:46:24.071Z,4.25
2023-04-18T19:56:34.598Z,3.33
2023-04-18T20:06:37.216Z,2.83
2023-04-18T20:16:39.552Z,2.63
2023-04-18T20:26:45.185Z,2.00
2023-04-18T20:36:52.001Z,1.95
2023-04-18T20:46:55.788Z,2.38
2023-04-18T20:56:57.716Z,1.77
2023-04-18T21:07:02.751Z,1.90
2023-04-18T21:17:06.889Z,2.60
2023-04-18T21:27:10.541Z,2.78
2023-04-18T21:37:12.222Z,2.88
2023-04-18T21:47:16.648Z,2.65
2023-04-18T21:57:19.344Z,3.05
2023-04-18T22:07:21.613Z,2.97
2023-04-18T22:17:23.307Z,2.83
2023-04-18T22:27:25.186Z,2.92
2023-04-18T22:37:28.639Z,3.58
2023-04-18T22:47:31.708Z,2.83
2023-04-18T23:07:35.810Z,2.65
2023-04-18T23:17:37.718Z,3.17
2023-04-18T23:27:41.509Z,3.00
2023-04-18T23:37:43.671Z,2.97
2023-04-18T23:47:45.844Z,3.00
2023-04-18T23:57:48.680Z,2.70
